Time;durP1;ratioP1;P1;durP2;ratioP2;P2;SDS_P1;SDS_P2;PMS_P1;PMS_P2;Temp;Humidity;BMP_temperature;BMP_pressure;BME280_temperature;BME280_humidity;BME280_pressure;Samples;Min_cycle;Max_cycle;Signal;HPM_P1;HPM_P2
2022/06/29 00:02:07;;;;;;;7.57;2.22;;;;;;;17.54;56.84;99878.34;10463474;28;20048;-66
2022/06/29 00:07:09;;;;;;;5.13;1.85;;;;;;;17.52;57.17;99872.34;10466762;28;20503;-66
2022/06/29 00:12:11;;;;;;;5.60;1.80;;;;;;;17.39;56.94;99866.47;10465328;28;20385;-66
2022/06/29 00:17:12;;;;;;;7.32;1.88;;;;;;;17.42;57.27;99870.66;10464959;28;20055;-66
2022/06/29 00:22:15;;;;;;;3.10;1.80;;;;;;;17.46;57.12;99870.25;10465058;28;20044;-65
2022/06/29 00:27:16;;;;;;;3.75;1.70;;;;;;;17.41;56.73;99872.47;10465986;28;20141;-66
2022/06/29 00:32:18;;;;;;;3.97;1.73;;;;;;;17.32;56.79;99864.47;10465118;28;20070;-66
2022/06/29 00:37:20;;;;;;;5.03;1.88;;;;;;;17.20;57.17;99868.22;10466012;28;20040;-65
2022/06/29 00:42:22;;;;;;;5.30;1.90;;;;;;;17.18;57.17;99863.03;10463068;28;20056;-66
2022/06/29 00:47:24;;;;;;;3.17;1.70;;;;;;;17.14;57.57;99863.47;10470049;28;20090;-65
2022/06/29 00:52:28;;;;;;;5.88;1.80;;;;;;;17.04;57.81;99864.25;10447556;28;20052;-66
2022/06/29 00:57:30;;;;;;;4.32;2.60;;;;;;;17.07;57.73;99849.09;10474645;28;20094;-66
2022/06/29 01:02:32;;;;;;;5.22;1.70;;;;;;;16.98;57.60;99854.22;10472850;28;20072;-65
2022/06/29 01:07:34;;;;;;;5.57;1.92;;;;;;;16.88;58.36;99849.88;10473694;28;20049;-66
2022/06/29 01:12:36;;;;;;;5.03;1.75;;;;;;;16.82;58.21;99853.03;10472632;28;20092;-66
2022/06/29 01:17:38;;;;;;;4.32;1.95;;;;;;;16.76;58.33;99848.28;10471420;28;20513;-65
2022/06/29 01:22:40;;;;;;;3.90;1.90;;;;;;;16.67;58.26;99849.09;10473155;28;20511;-66
2022/06/29 01:27:42;;;;;;;3.55;1.60;;;;;;;16.60;58.94;99851.44;10470902;28;20056;-65
2022/06/29 01:32:44;;;;;;;5.25;1.90;;;;;;;16.48;59.24;99852.47;10471882;28;20217;-65
2022/06/29 01:37:46;;;;;;;3.92;1.90;;;;;;;16.61;58.82;99849.63;10472188;28;20443;-66
2022/06/29 01:42:47;;;;;;;3.97;1.80;;;;;;;16.76;58.95;99845.66;10470666;28;20476;-65
2022/06/29 01:47:49;;;;;;;4.15;1.75;;;;;;;16.81;58.51;99839.00;10471720;28;20492;-65
2022/06/29 01:52:51;;;;;;;6.20;1.73;;;;;;;16.91;58.22;99825.84;10452276;28;20531;-65
2022/06/29 01:57:52;;;;;;;5.30;1.60;;;;;;;16.91;58.32;99831.13;10468136;28;20438;-65
2022/06/29 02:02:54;;;;;;;4.40;1.90;;;;;;;16.95;58.17;99829.88;10474978;28;20135;-65
2022/06/29 02:07:56;;;;;;;4.18;1.80;;;;;;;16.96;58.04;99828.91;10477522;28;20049;-65
2022/06/29 02:12:58;;;;;;;2.55;1.60;;;;;;;16.98;58.01;99811.94;10478292;28;20094;-65
2022/06/29 02:17:59;;;;;;;4.00;1.80;;;;;;;16.97;57.96;99815.59;10476396;28;20465;-65
2022/06/29 02:23:01;;;;;;;3.55;2.00;;;;;;;16.97;58.03;99804.16;10477443;28;20323;-66
2022/06/29 02:28:03;;;;;;;4.50;1.77;;;;;;;17.07;57.95;99814.75;10476214;28;20070;-66
2022/06/29 02:38:25;;;;;;;5.93;1.85;;;;;;;16.95;58.40;99792.91;10476488;28;20090;-66
2022/06/29 02:43:28;;;;;;;5.07;1.90;;;;;;;16.94;58.18;99799.16;10475339;28;20982;-66
2022/06/29 02:48:32;;;;;;;4.70;2.00;;;;;;;16.90;58.38;99798.59;10475635;28;20098;-66
2022/06/29 02:53:34;;;;;;;5.13;1.83;;;;;;;16.93;58.49;99800.13;10477404;28;20106;-66
2022/06/29 02:58:36;;;;;;;3.45;1.70;;;;;;;16.99;58.11;99799.59;10475944;28;20088;-66
2022/06/29 03:03:37;;;;;;;5.63;1.98;;;;;;;17.04;58.23;99800.00;10474320;28;20048;-65
2022/06/29 03:08:39;;;;;;;6.97;1.80;;;;;;;17.08;57.98;99800.59;10469862;28;20090;-66
2022/06/29 03:13:41;;;;;;;5.47;1.90;;;;;;;16.98;58.52;99795.25;10449488;28;20137;-66
2022/06/29 03:18:43;;;;;;;3.65;1.70;;;;;;;17.02;58.25;99801.94;10469794;28;20052;-65
2022/06/29 03:23:45;;;;;;;4.88;1.80;;;;;;;17.08;58.27;99800.59;10468584;28;20040;-66
2022/06/29 03:28:52;;;;;;;4.00;1.80;;;;;;;17.06;58.58;99795.41;10467113;28;20468;-66
2022/06/29 03:33:54;;;;;;;5.32;1.80;;;;;;;17.14;58.45;99800.03;10468799;28;20651;-66
2022/06/29 03:38:55;;;;;;;4.10;1.83;;;;;;;17.17;58.16;99792.66;10466285;28;20044;-66
2022/06/29 03:43:57;;;;;;;4.43;1.83;;;;;;;17.22;58.27;99784.34;10466468;28;20370;-66
2022/06/29 03:48:59;;;;;;;7.13;2.00;;;;;;;17.25;58.01;99782.25;10467901;28;20055;-66
2022/06/29 03:54:01;;;;;;;4.18;1.70;;;;;;;17.12;58.47;99783.50;10466838;28;20080;-65
2022/06/29 03:59:02;;;;;;;2.83;1.67;;;;;;;16.96;58.99;99782.19;10467689;28;20090;-65
2022/06/29 04:04:06;;;;;;;5.15;1.90;;;;;;;17.11;58.28;99781.81;10467489;28;20364;-66
2022/06/29 04:09:08;;;;;;;7.18;1.85;;;;;;;17.25;58.16;99776.97;10466498;28;20052;-66
2022/06/29 04:14:10;;;;;;;4.20;1.88;;;;;;;17.32;58.10;99766.69;10467083;28;21148;-66
2022/06/29 04:19:11;;;;;;;2.92;1.77;;;;;;;17.35;58.01;99775.19;10465299;28;20048;-66
2022/06/29 04:24:15;;;;;;;3.72;1.63;;;;;;;17.39;58.21;99766.00;10466609;28;20053;-66
2022/06/29 04:29:17;;;;;;;5.43;2.00;;;;;;;17.33;58.29;99763.91;10464412;28;20094;-65
2022/06/29 04:34:19;;;;;;;6.75;1.70;;;;;;;17.45;58.20;99773.38;10466736;28;20147;-65
2022/06/29 04:39:22;;;;;;;4.32;1.73;;;;;;;17.48;58.04;99772.28;10467204;28;20049;-65
2022/06/29 04:44:25;;;;;;;5.85;2.00;;;;;;;17.47;57.97;99758.22;10465747;28;20060;-66
2022/06/29 04:49:27;;;;;;;4.70;1.80;;;;;;;17.49;57.86;99760.72;10458057;28;20059;-65
2022/06/29 04:54:31;;;;;;;5.03;2.10;;;;;;;17.49;57.60;99760.72;10463272;28;20056;-65
2022/06/29 04:59:34;;;;;;;5.30;1.83;;;;;;;17.54;58.03;99762.00;10462048;28;20480;-65
2022/06/29 05:04:35;;;;;;;4.32;1.70;;;;;;;17.64;57.83;99760.16;10462653;28;20087;-66
2022/06/29 05:09:37;;;;;;;5.82;1.77;;;;;;;17.70;57.52;99767.53;10451417;28;20092;-66
2022/06/29 05:14:39;;;;;;;8.13;1.80;;;;;;;17.84;57.57;99763.63;10464008;28;20056;-66
2022/06/29 05:19:41;;;;;;;5.15;2.00;;;;;;;17.93;57.70;99760.13;10463842;28;20075;-66
2022/06/29 05:24:42;;;;;;;5.82;1.80;;;;;;;17.97;56.91;99760.69;10463165;28;20068;-66
2022/06/29 05:29:44;;;;;;;3.40;1.67;;;;;;;18.19;56.64;99758.56;10461463;28;20050;-67
2022/06/29 05:34:46;;;;;;;4.32;1.70;;;;;;;18.27;56.49;99749.88;10467870;28;20480;-66
2022/06/29 05:39:48;;;;;;;5.38;1.75;;;;;;;18.44;55.87;99741.19;10469464;28;20492;-66
2022/06/29 05:44:50;;;;;;;3.97;1.80;;;;;;;18.68;56.06;99746.78;10469508;28;20547;-66
2022/06/29 05:49:52;;;;;;;4.47;1.80;;;;;;;18.67;55.83;99747.75;10470415;28;20143;-71
2022/06/29 05:54:53;;;;;;;6.38;1.90;;;;;;;18.72;55.89;99752.63;10469762;28;20302;-71
2022/06/29 06:00:03;;;;;;;4.60;1.70;;;;;;;18.72;55.88;99750.81;10470675;28;20044;-71
2022/06/29 06:05:06;;;;;;;7.57;1.95;;;;;;;18.89;55.38;99744.69;10467308;28;20421;-71
2022/06/29 06:10:08;;;;;;;7.30;2.03;;;;;;;19.02;55.22;99742.56;10471441;28;20092;-71
2022/06/29 06:15:10;;;;;;;3.85;1.60;;;;;;;19.22;54.51;99751.22;10471519;28;20064;-71
2022/06/29 06:20:12;;;;;;;3.50;1.60;;;;;;;19.33;53.98;99751.84;10464909;28;20404;-71
2022/06/29 06:25:14;;;;;;;5.22;1.95;;;;;;;19.37;53.96;99752.38;10451341;28;20055;-71
2022/06/29 06:30:16;;;;;;;3.22;1.70;;;;;;;19.50;53.47;99747.53;10467086;28;20527;-71
2022/06/29 06:35:24;;;;;;;5.40;1.73;;;;;;;19.57;53.55;99748.56;10469154;28;20191;-70
2022/06/29 06:45:48;;;;;;;10.32;1.85;;;;;;;19.90;52.74;99742.56;10470855;28;20072;-70
2022/06/29 06:50:49;;;;;;;7.35;1.80;;;;;;;20.25;52.13;99744.28;10469028;28;20045;-70
2022/06/29 06:55:52;;;;;;;4.88;1.90;;;;;;;20.53;51.39;99740.41;10468913;28;20055;-70
2022/06/29 07:00:54;;;;;;;7.47;1.88;;;;;;;20.88;49.75;99742.09;10470128;28;20476;-70
2022/06/29 07:05:56;;;;;;;6.72;1.92;;;;;;;21.14;49.57;99742.81;10449600;28;20048;-71
2022/06/29 07:11:02;;;;;;;4.53;1.65;;;;;;;21.25;48.53;99739.00;10451809;28;20397;-71
2022/06/29 07:16:05;;;;;;;6.78;2.17;;;;;;;21.33;46.90;99736.38;10469665;28;20053;-71
2022/06/29 07:21:07;;;;;;;3.60;1.90;;;;;;;21.40;47.40;99732.06;10461012;28;20052;-70
2022/06/29 07:26:09;;;;;;;4.90;2.15;;;;;;;21.29;45.06;99735.84;10467772;28;20084;-71
2022/06/29 07:31:10;;;;;;;4.15;1.70;;;;;;;21.46;43.21;99731.38;10465383;28;20048;-70
2022/06/29 07:36:12;;;;;;;5.10;2.00;;;;;;;21.73;42.53;99725.75;10466657;28;20044;-71
2022/06/29 07:41:14;;;;;;;6.63;1.88;;;;;;;22.11;42.43;99717.03;10466649;28;20690;-70
2022/06/29 07:46:16;;;;;;;6.35;1.92;;;;;;;21.96;42.01;99723.22;10466724;28;20136;-71
2022/06/29 07:51:18;;;;;;;5.95;2.13;;;;;;;21.84;42.29;99722.75;10447891;28;20048;-70
2022/06/29 07:56:20;;;;;;;6.65;1.85;;;;;;;21.72;42.78;99735.56;10464101;28;20720;-71
2022/06/29 08:01:27;;;;;;;3.75;2.03;;;;;;;21.35;42.96;99724.59;10444804;28;20382;-71
2022/06/29 08:06:29;;;;;;;4.00;2.10;;;;;;;21.41;42.98;99725.75;10462335;28;20109;-71
2022/06/29 08:11:30;;;;;;;6.10;2.20;;;;;;;21.74;42.58;99722.91;10461189;28;20053;-71
2022/06/29 08:16:32;;;;;;;4.75;2.40;;;;;;;21.98;41.41;99711.41;10460598;28;20052;-71
2022/06/29 08:21:34;;;;;;;5.75;1.85;;;;;;;22.97;41.25;99704.56;10458157;28;20056;-71
2022/06/29 08:26:37;;;;;;;7.13;2.28;;;;;;;24.63;39.03;99700.69;10456058;28;20040;-71
2022/06/29 08:31:59;;;;;;;4.85;2.20;;;;;;;25.92;36.17;99681.81;10452696;28;20158;-71
2022/06/29 08:37:01;;;;;;;6.60;2.05;;;;;;;26.67;34.94;99682.66;10454863;28;20060;-70
2022/06/29 08:42:07;;;;;;;8.38;2.88;;;;;;;27.30;33.98;99679.53;10458817;28;20178;-70
2022/06/29 08:47:12;;;;;;;5.63;2.70;;;;;;;28.18;32.70;99679.06;10463055;28;20083;-71
2022/06/29 08:52:15;;;;;;;9.13;2.45;;;;;;;27.96;31.60;99680.38;10456251;28;20429;-70
2022/06/29 08:57:18;;;;;;;7.20;2.45;;;;;;;27.98;32.66;99683.69;10461382;28;20044;-70
2022/06/29 09:02:20;;;;;;;6.15;2.10;;;;;;;27.76;33.28;99684.94;10437241;28;20405;-71
2022/06/29 09:07:23;;;;;;;5.07;2.45;;;;;;;27.73;32.41;99687.22;10458156;28;20420;-70
2022/06/29 09:12:26;;;;;;;7.43;2.80;;;;;;;27.61;33.03;99686.16;10457116;28;20491;-70
2022/06/29 09:17:32;;;;;;;5.70;2.58;;;;;;;27.08;33.77;99686.06;10463367;28;20115;-70
2022/06/29 09:22:41;;;;;;;6.03;2.60;;;;;;;26.86;33.99;99684.56;10456322;28;20049;-70
2022/06/29 09:27:44;;;;;;;8.13;2.50;;;;;;;26.66;34.04;99678.31;10465547;28;20056;-70
2022/06/29 09:32:59;;;;;;;5.50;2.90;;;;;;;26.22;34.54;99676.00;10464711;28;20059;-69
2022/06/29 09:38:26;;;;;;;9.00;2.88;;;;;;;25.99;36.12;99680.84;10464317;28;20048;-69
2022/06/29 09:43:29;;;;;;;7.68;2.92;;;;;;;25.75;36.69;99684.75;10461541;28;20044;-70
2022/06/29 09:48:33;;;;;;;5.57;2.88;;;;;;;25.60;36.29;99680.53;10465562;28;20049;-70
2022/06/29 09:53:38;;;;;;;5.20;2.67;;;;;;;25.68;37.37;99670.50;10460953;28;20225;-70
2022/06/29 09:58:48;;;;;;;6.90;3.08;;;;;;;26.23;36.63;99668.81;10467083;28;20069;-69
2022/06/29 10:03:57;;;;;;;6.53;3.03;;;;;;;26.62;35.19;99669.03;10458460;28;20052;-69
2022/06/29 10:09:00;;;;;;;3.80;2.53;;;;;;;27.23;34.96;99661.75;10464395;28;20098;-70
2022/06/29 10:14:08;;;;;;;5.38;2.72;;;;;;;27.57;34.12;99658.03;10464734;28;20057;-70
2022/06/29 10:19:36;;;;;;;6.70;3.07;;;;;;;27.85;33.20;99661.38;10462580;28;20052;-70
2022/06/29 10:24:37;;;;;;;5.13;3.08;;;;;;;27.77;33.83;99656.22;10464788;28;20059;-70
2022/06/29 10:29:39;;;;;;;10.00;2.72;;;;;;;28.21;33.72;99645.56;10463182;28;20429;-70
2022/06/29 10:40:04;;;;;;;6.32;3.13;;;;;;;28.58;33.16;99650.22;10461858;28;20045;-70
2022/06/29 10:45:16;;;;;;;7.78;3.53;;;;;;;29.18;32.38;99635.34;10465823;28;20048;-70
2022/06/29 10:50:19;;;;;;;7.78;3.10;;;;;;;29.94;32.30;99632.47;10462171;28;20042;-70
2022/06/29 10:55:23;;;;;;;7.22;3.50;;;;;;;29.87;31.37;99629.78;10450127;28;20412;-70
2022/06/29 11:00:39;;;;;;;6.93;3.60;;;;;;;29.09;31.62;99634.78;10452126;28;20502;-70
2022/06/29 11:16:35;;;;;;;4.70;3.33;;;;;;;28.84;34.46;99617.81;10452341;28;20052;-70
2022/06/29 11:21:37;;;;;;;5.72;3.45;;;;;;;28.44;34.64;99619.00;10452846;28;20048;-70
2022/06/29 11:26:38;;;;;;;11.07;3.83;;;;;;;28.27;36.14;99617.81;10455238;28;20468;-70
2022/06/29 11:31:40;;;;;;;5.60;3.35;;;;;;;28.39;35.77;99610.75;10460283;28;20560;-70
2022/06/29 11:36:42;;;;;;;8.30;3.03;;;;;;;28.21;36.42;99602.53;10454060;28;20621;-70
2022/06/29 11:47:12;;;;;;;5.45;3.10;;;;;;;28.19;37.01;99594.69;10458677;28;20044;-70
2022/06/29 11:52:13;;;;;;;5.13;3.35;;;;;;;28.24;36.92;99597.56;10444258;28;20312;-70
2022/06/29 11:57:17;;;;;;;7.55;3.30;;;;;;;28.73;36.08;99591.53;10460847;28;20036;-70
2022/06/29 12:02:19;;;;;;;7.85;3.20;;;;;;;28.89;35.87;99587.50;10460527;28;20045;-71
2022/06/29 12:07:22;;;;;;;7.38;3.00;;;;;;;29.10;35.25;99589.84;10459554;28;20147;-70
2022/06/29 12:12:24;;;;;;;8.52;3.13;;;;;;;29.18;34.83;99592.28;10438376;28;20048;-70
2022/06/29 12:17:25;;;;;;;6.18;3.33;;;;;;;29.19;34.59;99593.09;10459524;28;20084;-70
2022/06/29 12:22:27;;;;;;;4.72;3.13;;;;;;;29.02;35.10;99580.19;10458548;28;20044;-70
2022/06/29 12:27:29;;;;;;;5.32;3.60;;;;;;;29.03;35.05;99578.31;10445652;28;20118;-69
2022/06/29 12:32:31;;;;;;;5.30;3.85;;;;;;;28.95;34.84;99574.00;10441664;28;20064;-70
2022/06/29 12:37:33;;;;;;;7.80;3.70;;;;;;;29.08;35.19;99575.78;10440107;28;20044;-70
2022/06/29 12:42:35;;;;;;;7.15;3.90;;;;;;;29.56;34.25;99565.22;10444953;28;20404;-70
2022/06/29 12:47:38;;;;;;;6.88;4.07;;;;;;;29.18;34.75;99551.03;10453257;28;20412;-70
2022/06/29 12:52:46;;;;;;;8.32;4.20;;;;;;;28.93;34.87;99540.28;10449060;28;20061;-70
2022/06/29 12:57:48;;;;;;;7.43;4.28;;;;;;;29.20;35.06;99548.94;10443491;28;20087;-70
2022/06/29 13:02:50;;;;;;;7.50;4.10;;;;;;;29.09;35.01;99553.22;10446993;28;20292;-70
2022/06/29 13:07:51;;;;;;;6.97;4.38;;;;;;;29.48;34.50;99546.66;10443885;28;20146;-70
2022/06/29 13:12:53;;;;;;;6.40;4.30;;;;;;;29.27;34.90;99537.09;10448131;28;20059;-70
2022/06/29 13:17:55;;;;;;;8.27;4.10;;;;;;;29.19;34.96;99536.53;10445729;28;20091;-70
2022/06/29 13:22:57;;;;;;;9.77;4.85;;;;;;;28.95;34.70;99541.69;10448580;28;20053;-70
2022/06/29 13:28:00;;;;;;;6.72;4.28;;;;;;;29.31;35.07;99532.06;10449211;28;20059;-70
2022/06/29 13:33:02;;;;;;;8.77;4.70;;;;;;;29.20;34.62;99527.41;10430052;28;20067;-70
2022/06/29 13:38:07;;;;;;;10.55;5.00;;;;;;;29.34;34.53;99518.97;10447324;28;20044;-70
2022/06/29 13:43:12;;;;;;;8.88;4.82;;;;;;;28.95;34.70;99522.84;10449026;28;20045;-70
2022/06/29 13:48:14;;;;;;;8.00;4.38;;;;;;;28.96;34.41;99515.59;10449356;28;20052;-71
2022/06/29 13:53:16;;;;;;;7.10;4.45;;;;;;;28.81;34.37;99513.19;10450251;28;20488;-70
2022/06/29 13:58:18;;;;;;;8.70;5.05;;;;;;;29.27;35.08;99512.00;10449929;28;20056;-71
2022/06/29 14:03:20;;;;;;;9.43;4.70;;;;;;;29.42;34.23;99504.44;10445731;28;20092;-71
2022/06/29 14:08:22;;;;;;;10.40;4.95;;;;;;;29.22;34.79;99504.59;10445754;28;20052;-71
2022/06/29 14:13:44;;;;;;;7.20;4.50;;;;;;;29.50;34.95;99496.88;10456194;28;20086;-70
2022/06/29 14:18:46;;;;;;;12.38;5.65;;;;;;;29.53;33.86;99492.91;10431618;28;20562;-70
2022/06/29 14:23:48;;;;;;;6.75;4.75;;;;;;;29.82;33.54;99487.59;10462782;28;20650;-70
2022/06/29 14:28:50;;;;;;;7.78;4.68;;;;;;;29.92;33.32;99486.22;10463667;28;20488;-70
2022/06/29 14:33:52;;;;;;;8.80;4.80;;;;;;;29.86;34.23;99485.25;10447772;28;20063;-71
2022/06/29 14:39:00;;;;;;;7.37;4.60;;;;;;;30.22;33.50;99487.91;10462169;28;20094;-70
2022/06/29 14:44:08;;;;;;;6.77;4.27;;;;;;;30.16;33.54;99491.53;10463445;28;20106;-71
2022/06/29 14:49:09;;;;;;;6.20;4.15;;;;;;;30.49;33.03;99481.13;10465247;28;20080;-70
2022/06/29 14:54:11;;;;;;;7.50;4.30;;;;;;;30.67;32.51;99477.50;10443540;28;20122;-71
2022/06/29 14:59:14;;;;;;;6.32;4.38;;;;;;;30.24;32.82;99472.31;10461336;28;20416;-71
2022/06/29 15:04:17;;;;;;;6.55;4.20;;;;;;;30.27;32.72;99465.66;10459242;28;20114;-70
2022/06/29 15:09:19;;;;;;;7.70;4.20;;;;;;;30.29;33.18;99471.63;10462632;28;20048;-70
2022/06/29 15:14:22;;;;;;;9.02;4.10;;;;;;;29.86;33.13;99458.31;10438508;28;20067;-70
2022/06/29 15:19:24;;;;;;;6.47;4.07;;;;;;;29.82;33.17;99457.09;10464286;28;20049;-70
2022/06/29 15:24:26;;;;;;;6.43;4.07;;;;;;;29.95;34.13;99456.94;10441909;28;20068;-70
2022/06/29 15:29:28;;;;;;;7.75;4.32;;;;;;;29.74;32.59;99452.84;10445226;28;20779;-70
2022/06/29 15:39:50;;;;;;;7.25;4.32;;;;;;;29.44;34.53;99443.06;10464002;28;20303;-71
2022/06/29 15:44:52;;;;;;;7.57;4.05;;;;;;;29.74;33.69;99438.56;10445600;28;20054;-71
2022/06/29 15:49:55;;;;;;;7.35;4.47;;;;;;;29.62;33.47;99435.78;10461116;28;20347;-71
2022/06/29 16:00:19;;;;;;;6.00;3.97;;;;;;;29.71;33.37;99425.50;10464435;28;20489;-71
2022/06/29 16:05:20;;;;;;;6.22;3.90;;;;;;;29.72;33.21;99435.25;10462461;28;20409;-71
2022/06/29 16:10:23;;;;;;;6.22;4.10;;;;;;;29.51;32.91;99416.84;10466268;28;20052;-71
2022/06/29 16:15:25;;;;;;;6.68;3.83;;;;;;;29.12;34.52;99415.41;10455776;28;20048;-71
2022/06/29 16:20:26;;;;;;;6.70;3.97;;;;;;;29.32;33.69;99399.84;10464374;28;20051;-70
2022/06/29 16:25:29;;;;;;;7.25;3.60;;;;;;;29.50;33.74;99397.16;10464407;28;20052;-71
2022/06/29 16:30:31;;;;;;;5.75;3.88;;;;;;;29.53;34.09;99401.28;10458765;28;20523;-71
2022/06/29 16:35:34;;;;;;;6.50;3.95;;;;;;;29.42;33.92;99391.28;10465560;28;20139;-71
2022/06/29 16:40:39;;;;;;;6.35;3.50;;;;;;;29.63;33.94;99393.47;10441105;28;20051;-71
2022/06/29 16:45:41;;;;;;;5.30;3.88;;;;;;;29.55;33.03;99391.09;10461119;28;20098;-71
2022/06/29 16:50:43;;;;;;;5.60;3.70;;;;;;;29.42;33.46;99388.59;10440366;28;20123;-70
2022/06/29 16:55:45;;;;;;;7.10;3.50;;;;;;;29.45;33.23;99393.50;10457181;28;20071;-70
2022/06/29 17:00:46;;;;;;;9.38;3.78;;;;;;;29.50;32.94;99397.16;10465426;28;20048;-70
2022/06/29 17:05:48;;;;;;;6.10;3.42;;;;;;;29.36;33.14;99395.66;10462018;28;20064;-70
2022/06/29 17:10:50;;;;;;;5.35;3.47;;;;;;;29.32;33.21;99388.25;10464862;28;20051;-70
2022/06/29 17:15:52;;;;;;;7.63;3.60;;;;;;;29.03;33.89;99385.25;10464593;28;20056;-71
2022/06/29 17:20:55;;;;;;;6.70;3.83;;;;;;;28.96;34.30;99381.00;10464401;28;20449;-71
2022/06/29 17:25:57;;;;;;;4.72;3.80;;;;;;;28.93;35.11;99382.25;10463845;28;20297;-70
2022/06/29 17:30:59;;;;;;;5.03;3.95;;;;;;;28.65;35.48;99389.97;10455912;28;20106;-70
2022/06/29 17:36:01;;;;;;;5.55;3.90;;;;;;;28.46;35.79;99392.84;10420622;28;20049;-70
2022/06/29 17:41:03;;;;;;;6.50;3.90;;;;;;;28.22;36.09;99387.19;10443498;28;20459;-70
2022/06/29 17:46:05;;;;;;;5.57;3.95;;;;;;;28.18;35.78;99385.13;10445722;28;20056;-71
2022/06/29 17:51:07;;;;;;;9.82;3.80;;;;;;;28.10;36.27;99388.91;10434135;28;20141;-71
2022/06/29 17:56:09;;;;;;;4.75;3.58;;;;;;;28.15;35.88;99381.03;10450017;28;20060;-71
2022/06/29 18:01:11;;;;;;;5.25;3.50;;;;;;;28.16;36.73;99385.34;10424984;28;20067;-71
2022/06/29 18:06:13;;;;;;;6.70;3.20;;;;;;;28.19;37.37;99381.41;10425371;28;20060;-71
2022/06/29 18:11:15;;;;;;;6.55;3.58;;;;;;;28.02;37.64;99382.97;10448048;28;20138;-71
2022/06/29 18:16:36;;;;;;;4.55;3.70;;;;;;;27.88;37.79;99378.72;10450168;28;20616;-71
2022/06/29 18:21:40;;;;;;;7.70;3.92;;;;;;;27.80;38.47;99385.19;10450976;28;20524;-71
2022/06/29 18:26:42;;;;;;;8.13;4.25;;;;;;;27.68;38.97;99381.50;10465964;28;20170;-71
2022/06/29 18:31:44;;;;;;;7.22;4.30;;;;;;;27.49;39.34;99377.88;10464410;28;20051;-70
2022/06/29 18:36:48;;;;;;;6.80;4.40;;;;;;;27.38;40.12;99381.22;10463828;28;20082;-71
2022/06/29 18:41:52;;;;;;;6.38;4.15;;;;;;;27.33;40.30;99373.00;10465023;28;20455;-71
2022/06/29 18:46:55;;;;;;;7.65;4.05;;;;;;;27.01;41.36;99383.78;10461000;28;20334;-71
2022/06/29 18:51:58;;;;;;;11.60;4.30;;;;;;;26.84;42.32;99383.41;10465037;28;20420;-70
2022/06/29 18:57:00;;;;;;;6.55;4.18;;;;;;;26.69;42.61;99382.81;10461564;28;20753;-66
2022/06/29 19:02:03;;;;;;;6.30;4.43;;;;;;;26.40;43.10;99386.72;10463991;28;20638;-66
2022/06/29 19:07:04;;;;;;;6.93;4.35;;;;;;;26.15;43.80;99384.84;10464503;28;20079;-66
2022/06/29 19:12:07;;;;;;;7.40;4.40;;;;;;;25.85;44.54;99389.72;10459537;28;20053;-66
2022/06/29 19:17:08;;;;;;;7.38;4.78;;;;;;;25.57;45.05;99379.09;10442839;28;20603;-66
2022/06/29 19:22:10;;;;;;;7.65;4.40;;;;;;;25.36;45.78;99381.09;10464674;28;20056;-66
2022/06/29 19:27:12;;;;;;;6.82;5.00;;;;;;;25.10;46.60;99382.56;10463119;28;20140;-66
2022/06/29 19:32:14;;;;;;;10.25;5.10;;;;;;;24.75;47.78;99385.47;10460022;28;20500;-66
2022/06/29 19:37:16;;;;;;;6.32;4.93;;;;;;;24.62;48.29;99382.66;10463303;28;20448;-66
2022/06/29 19:42:17;;;;;;;9.55;4.90;;;;;;;24.45;48.61;99386.66;10459361;28;20052;-66
2022/06/29 19:47:19;;;;;;;10.45;4.80;;;;;;;24.32;49.05;99398.03;10458337;28;20325;-65
2022/06/29 19:52:21;;;;;;;6.82;4.93;;;;;;;24.11;49.83;99396.22;10459105;28;20057;-66
2022/06/29 19:57:22;;;;;;;7.85;5.25;;;;;;;23.92;50.55;99404.81;10460459;28;20459;-66
2022/06/29 20:02:25;;;;;;;8.35;5.35;;;;;;;23.77;50.95;99409.38;10461525;28;20095;-65
2022/06/29 20:07:26;;;;;;;8.65;5.35;;;;;;;23.56;51.53;99422.69;10459698;28;20637;-66
2022/06/29 20:12:28;;;;;;;7.38;5.50;;;;;;;23.39;51.82;99423.88;10461674;28;20468;-66
2022/06/29 20:17:30;;;;;;;8.13;5.30;;;;;;;23.29;52.22;99434.81;10466004;28;20056;-65
2022/06/29 20:22:32;;;;;;;7.50;5.72;;;;;;;23.17;52.60;99438.97;10465475;28;20052;-65
2022/06/29 20:27:34;;;;;;;7.65;5.70;;;;;;;23.03;52.92;99447.78;10456170;28;20104;-65
2022/06/29 20:32:36;;;;;;;7.60;5.13;;;;;;;22.85;53.42;99441.97;10441273;28;20153;-65
2022/06/29 20:37:41;;;;;;;8.27;5.90;;;;;;;22.82;53.52;99444.19;10455918;28;20072;-65
2022/06/29 20:42:43;;;;;;;7.25;5.45;;;;;;;22.54;53.93;99451.88;10457964;28;20114;-65
2022/06/29 20:47:45;;;;;;;9.10;5.57;;;;;;;22.45;54.20;99440.44;10462015;28;20044;-65
2022/06/29 20:52:49;;;;;;;9.27;5.78;;;;;;;22.42;54.08;99443.50;10460432;28;20122;-65
2022/06/29 20:57:52;;;;;;;9.07;6.00;;;;;;;22.37;54.13;99453.84;10456769;28;20040;-65
2022/06/29 21:02:53;;;;;;;9.20;6.15;;;;;;;22.24;54.50;99450.13;10460726;28;20063;-65
2022/06/29 21:07:55;;;;;;;9.70;5.65;;;;;;;22.11;54.71;99463.22;10451838;28;20056;-65
2022/06/29 21:12:57;;;;;;;9.00;5.90;;;;;;;21.97;55.06;99458.59;10472421;28;20053;-66
2022/06/29 21:17:59;;;;;;;8.77;5.57;;;;;;;21.95;55.42;99460.59;10471421;28;20131;-66
2022/06/29 21:23:16;;;;;;;9.40;5.97;;;;;;;22.00;55.06;99460.91;10473789;28;20446;-65
2022/06/29 21:28:18;;;;;;;8.60;6.05;;;;;;;21.94;55.15;99470.44;10471223;28;20028;-65
2022/06/29 21:33:20;;;;;;;8.02;6.30;;;;;;;21.83;55.39;99465.50;10471475;28;20152;-65
2022/06/29 21:38:21;;;;;;;7.18;6.00;;;;;;;21.65;55.79;99472.91;10472086;28;20041;-64
2022/06/29 21:43:23;;;;;;;8.38;6.25;;;;;;;21.65;56.21;99472.91;10472186;28;20451;-65
2022/06/29 21:53:46;;;;;;;9.57;6.90;;;;;;;21.68;56.10;99475.22;10470937;28;20353;-64
2022/06/29 21:58:48;;;;;;;10.02;6.72;;;;;;;21.68;56.27;99469.91;10470948;28;20132;-64
2022/06/29 22:03:51;;;;;;;7.50;6.47;;;;;;;21.66;56.28;99469.25;10470894;28;20139;-64
2022/06/29 22:08:53;;;;;;;11.30;7.05;;;;;;;21.61;56.41;99477.75;10470936;28;20052;-65
2022/06/29 22:13:55;;;;;;;9.48;7.00;;;;;;;21.44;56.95;99473.47;10469568;28;20050;-65
2022/06/29 22:18:57;;;;;;;8.95;7.00;;;;;;;21.43;56.92;99471.00;10469492;28;20048;-64
2022/06/29 22:23:59;;;;;;;7.97;6.63;;;;;;;21.40;56.87;99480.16;10470455;28;20294;-64
2022/06/29 22:29:01;;;;;;;7.65;6.85;;;;;;;21.31;57.31;99482.97;10468123;28;20044;-64
2022/06/29 22:34:03;;;;;;;7.07;6.38;;;;;;;21.34;57.25;99490.63;10468986;28;20326;-64
2022/06/29 22:39:04;;;;;;;8.43;6.80;;;;;;;21.13;57.49;99490.34;10467237;28;20044;-65
2022/06/29 22:44:06;;;;;;;8.07;5.97;;;;;;;21.27;57.59;99479.84;10468662;28;20131;-64
2022/06/29 22:49:08;;;;;;;8.07;6.43;;;;;;;21.40;57.08;99487.28;10468225;28;20051;-64
2022/06/29 22:54:09;;;;;;;8.65;6.85;;;;;;;21.27;57.59;99485.16;10469196;28;20066;-64
2022/06/29 22:59:11;;;;;;;7.82;6.97;;;;;;;21.20;57.65;99486.00;10450851;28;20048;-64
2022/06/29 23:04:13;;;;;;;8.32;6.70;;;;;;;21.14;57.53;99499.97;10467065;28;20063;-65
2022/06/29 23:09:14;;;;;;;9.38;7.00;;;;;;;21.07;57.70;99491.81;10468913;28;20058;-64
2022/06/29 23:14:16;;;;;;;9.55;6.97;;;;;;;20.92;57.96;99491.72;10465877;28;20067;-64
2022/06/29 23:19:18;;;;;;;13.23;7.65;;;;;;;20.65;58.58;99505.34;10467477;28;20320;-64
2022/06/29 23:24:20;;;;;;;9.65;7.32;;;;;;;20.69;58.73;99511.97;10467915;28;20055;-64
2022/06/29 23:29:23;;;;;;;8.57;7.15;;;;;;;20.71;58.80;99517.13;10467481;28;20047;-64
2022/06/29 23:34:24;;;;;;;8.65;7.10;;;;;;;20.72;58.46;99508.16;10466416;28;20475;-64
2022/06/29 23:39:26;;;;;;;9.85;7.47;;;;;;;20.58;58.94;99516.78;10466099;28;20043;-64
2022/06/29 23:44:28;;;;;;;8.13;7.07;;;;;;;20.56;58.75;99508.94;10465930;28;20052;-64
2022/06/29 23:49:30;;;;;;;7.90;6.82;;;;;;;20.35;59.34;99508.59;10465662;28;20110;-65
2022/06/29 23:54:34;;;;;;;9.63;7.18;;;;;;;20.40;59.00;99500.94;10447884;28;20139;-66
2022/06/29 23:59:36;;;;;;;9.15;6.88;;;;;;;20.36;59.24;99502.28;10465617;28;20051;-64
